createdAt,value
2023-09-20T00:02:14.575Z,16.85
2023-09-20T00:04:43.432Z,16.81
2023-09-20T00:07:11.648Z,16.89
2023-09-20T00:09:39.899Z,16.96
2023-09-20T00:12:08.375Z,17.03
2023-09-20T00:14:36.544Z,17.01
2023-09-20T00:17:04.530Z,17.10
2023-09-20T00:19:34.211Z,17.17
2023-09-20T00:22:02.393Z,17.19
2023-09-20T00:24:30.170Z,17.22
2023-09-20T00:26:58.488Z,17.25
2023-09-20T00:29:27.906Z,17.24
2023-09-20T00:31:56.910Z,17.26
2023-09-20T00:34:25.098Z,17.25
2023-09-20T00:36:54.298Z,17.26
2023-09-20T00:39:22.006Z,17.23
2023-09-20T00:41:51.132Z,17.19
2023-09-20T00:44:20.253Z,17.14
2023-09-20T00:46:48.786Z,17.06
2023-09-20T00:49:17.726Z,16.99
2023-09-20T00:51:48.245Z,16.98
2023-09-20T00:54:18.757Z,17.05
2023-09-20T00:56:46.877Z,17.10
2023-09-20T00:59:16.206Z,17.08
2023-09-20T01:01:44.214Z,17.09
2023-09-20T01:04:13.291Z,17.09
2023-09-20T01:06:42.802Z,17.08
2023-09-20T01:09:11.162Z,17.08
2023-09-20T01:11:41.623Z,17.06
2023-09-20T01:14:09.835Z,17.03
2023-09-20T01:16:37.718Z,17.00
2023-09-20T01:19:06.156Z,17.00
2023-09-20T01:21:44.246Z,17.00
2023-09-20T01:24:13.250Z,16.97
2023-09-20T01:26:42.908Z,17.00
2023-09-20T01:29:13.219Z,17.04
2023-09-20T01:31:41.235Z,17.06
2023-09-20T01:34:09.023Z,17.00
2023-09-20T01:36:38.030Z,16.94
2023-09-20T01:39:10.588Z,16.78
2023-09-20T01:41:39.022Z,16.77
2023-09-20T01:44:08.321Z,16.74
2023-09-20T01:46:38.400Z,16.70
2023-09-20T01:49:07.795Z,16.60
2023-09-20T01:51:35.852Z,16.57
2023-09-20T01:54:04.940Z,16.67
2023-09-20T01:56:34.042Z,16.71
2023-09-20T01:59:01.863Z,16.70
2023-09-20T02:01:30.391Z,16.68
2023-09-20T02:03:58.425Z,16.68
2023-09-20T02:06:26.286Z,16.71
2023-09-20T02:08:54.421Z,16.72
2023-09-20T02:11:22.659Z,16.69
2023-09-20T02:13:51.865Z,16.75
2023-09-20T02:16:19.651Z,16.72
2023-09-20T02:18:49.443Z,16.67
2023-09-20T02:21:18.197Z,16.65
2023-09-20T02:23:47.550Z,16.64
2023-09-20T02:26:15.327Z,16.58
2023-09-20T02:28:43.636Z,16.64
2023-09-20T02:31:13.628Z,16.63
2023-09-20T02:33:41.479Z,16.62
2023-09-20T02:36:13.374Z,16.62
2023-09-20T02:38:41.316Z,16.58
2023-09-20T02:41:10.028Z,16.59
2023-09-20T02:43:39.209Z,16.60
2023-09-20T02:46:08.435Z,16.60
2023-09-20T02:48:37.611Z,16.59
2023-09-20T02:51:06.541Z,16.54
2023-09-20T02:53:36.906Z,16.52
2023-09-20T02:56:06.597Z,16.47
2023-09-20T02:58:34.913Z,16.47
2023-09-20T03:01:03.516Z,16.48
2023-09-20T03:03:31.682Z,16.45
2023-09-20T03:06:10.126Z,16.44
2023-09-20T03:08:43.033Z,16.44
2023-09-20T03:11:11.113Z,16.44
2023-09-20T03:13:39.058Z,16.43
2023-09-20T03:16:06.817Z,16.41
2023-09-20T03:18:35.457Z,16.40
2023-09-20T03:21:11.488Z,16.36
2023-09-20T03:23:41.176Z,16.35
2023-09-20T03:26:10.779Z,16.35
2023-09-20T03:28:39.246Z,16.29
2023-09-20T03:31:11.403Z,16.29
2023-09-20T03:33:39.950Z,16.29
2023-09-20T03:36:16.896Z,16.27
2023-09-20T03:38:48.723Z,16.29
2023-09-20T03:41:16.626Z,16.28
2023-09-20T03:43:46.711Z,16.29
2023-09-20T03:46:15.773Z,16.31
2023-09-20T03:48:45.726Z,16.26
2023-09-20T03:51:18.437Z,16.24
2023-09-20T03:53:47.397Z,16.16
2023-09-20T03:56:21.007Z,16.19
2023-09-20T03:58:50.411Z,16.06
2023-09-20T04:01:18.418Z,15.96
2023-09-20T04:03:46.866Z,15.82
2023-09-20T04:06:14.903Z,15.93
2023-09-20T04:08:44.311Z,15.93
2023-09-20T04:11:13.668Z,16.02
2023-09-20T04:13:41.762Z,16.07
2023-09-20T04:16:09.702Z,15.99
2023-09-20T04:18:38.430Z,16.00
2023-09-20T04:21:06.526Z,15.94
2023-09-20T04:23:34.581Z,16.00
2023-09-20T04:26:04.958Z,16.07
2023-09-20T04:28:32.930Z,16.08
2023-09-20T04:31:01.577Z,16.03
2023-09-20T04:33:30.565Z,15.98
2023-09-20T04:35:59.901Z,16.01
2023-09-20T04:38:29.084Z,16.04
2023-09-20T04:40:58.048Z,15.93
2023-09-20T04:43:27.849Z,16.13
2023-09-20T04:45:56.502Z,16.04
2023-09-20T04:48:25.527Z,16.03
2023-09-20T04:50:56.803Z,16.10
2023-09-20T04:53:25.332Z,16.10
2023-09-20T04:55:53.040Z,16.01
2023-09-20T04:58:21.647Z,16.04
2023-09-20T05:00:50.932Z,16.08
2023-09-20T05:03:20.809Z,16.11
2023-09-20T05:05:53.406Z,16.17
2023-09-20T05:08:21.499Z,16.16
2023-09-20T05:10:49.359Z,16.15
2023-09-20T05:13:18.376Z,16.20
2023-09-20T05:15:47.028Z,16.15
2023-09-20T05:18:17.216Z,16.14
2023-09-20T05:20:46.024Z,16.17
2023-09-20T05:23:14.141Z,16.20
2023-09-20T05:25:42.012Z,16.20
2023-09-20T05:28:09.731Z,16.16
2023-09-20T05:30:37.686Z,16.17
2023-09-20T05:33:06.234Z,16.09
2023-09-20T05:35:36.067Z,16.13
2023-09-20T05:38:04.368Z,16.15
2023-09-20T05:40:32.757Z,16.19
2023-09-20T05:43:02.580Z,16.21
2023-09-20T05:45:30.985Z,16.28
2023-09-20T05:47:59.285Z,16.31
2023-09-20T05:50:34.741Z,16.36
2023-09-20T05:53:07.902Z,16.35
2023-09-20T05:55:39.057Z,16.39
2023-09-20T05:58:07.309Z,16.43
2023-09-20T06:00:36.586Z,16.48
2023-09-20T06:03:05.931Z,16.45
2023-09-20T06:05:36.727Z,16.48
2023-09-20T06:08:08.302Z,16.52
2023-09-20T06:10:36.898Z,16.53
2023-09-20T06:13:06.575Z,16.54
2023-09-20T06:15:34.364Z,16.55
2023-09-20T06:18:02.209Z,16.62
2023-09-20T06:20:29.997Z,16.62
2023-09-20T06:22:58.050Z,16.65
2023-09-20T06:25:27.888Z,16.70
2023-09-20T06:27:55.910Z,16.70
2023-09-20T06:30:25.571Z,16.68
2023-09-20T06:32:53.905Z,16.70
2023-09-20T06:35:23.684Z,16.74
2023-09-20T06:37:52.766Z,16.80
2023-09-20T06:40:24.033Z,16.79
2023-09-20T06:42:53.183Z,16.86
2023-09-20T06:45:22.092Z,16.95
2023-09-20T06:47:51.007Z,17.04
2023-09-20T06:50:19.140Z,17.01
2023-09-20T06:52:48.048Z,17.07
2023-09-20T06:55:19.015Z,17.13
2023-09-20T06:57:48.916Z,17.20
2023-09-20T07:00:28.222Z,17.23
2023-09-20T07:02:58.212Z,17.33
2023-09-20T07:05:29.321Z,17.38
2023-09-20T07:07:59.512Z,17.44
2023-09-20T07:10:30.578Z,17.54
2023-09-20T07:12:58.601Z,17.61
2023-09-20T07:15:29.407Z,17.74
2023-09-20T07:18:12.724Z,17.70
2023-09-20T07:20:42.434Z,17.77
2023-09-20T07:23:14.382Z,17.90
2023-09-20T07:25:44.331Z,17.91
2023-09-20T07:28:12.607Z,17.97
2023-09-20T07:30:46.709Z,18.01
2023-09-20T07:33:21.171Z,18.08
2023-09-20T07:36:00.349Z,18.16
2023-09-20T07:38:40.016Z,18.36
2023-09-20T07:41:11.920Z,18.22
2023-09-20T07:43:40.446Z,18.41
2023-09-20T07:46:10.281Z,18.42
2023-09-20T07:48:45.293Z,18.34
2023-09-20T07:51:17.586Z,18.51
2023-09-20T07:53:46.068Z,18.70
2023-09-20T07:56:15.124Z,18.63
2023-09-20T07:58:45.562Z,18.80
2023-09-20T08:01:18.294Z,18.75
2023-09-20T08:03:52.498Z,18.93
2023-09-20T08:06:21.327Z,19.09
2023-09-20T08:08:49.860Z,19.18
2023-09-20T08:11:20.731Z,19.20
2023-09-20T08:13:51.406Z,19.32
2023-09-20T08:16:21.327Z,19.34
2023-09-20T08:19:10.898Z,19.43
2023-09-20T08:21:40.039Z,19.42
2023-09-20T08:24:25.630Z,19.56
2023-09-20T08:27:12.159Z,19.48
2023-09-20T08:30:00.180Z,19.66
2023-09-20T08:32:47.661Z,19.88
2023-09-20T08:35:33.115Z,20.01
2023-09-20T08:38:18.465Z,20.61
2023-09-20T08:41:04.045Z,20.69
2023-09-20T08:43:49.646Z,20.75
2023-09-20T08:46:36.572Z,20.58
2023-09-20T08:49:24.456Z,20.63
2023-09-20T08:52:13.729Z,20.81
2023-09-20T08:54:59.703Z,20.78
2023-09-20T08:57:47.231Z,20.85
2023-09-20T09:00:23.791Z,20.89
2023-09-20T09:02:55.576Z,20.94
2023-09-20T09:05:27.348Z,21.21
2023-09-20T09:07:56.278Z,21.64
2023-09-20T09:10:24.054Z,21.67
2023-09-20T09:12:51.752Z,21.55
2023-09-20T09:15:19.929Z,21.55
2023-09-20T09:17:49.700Z,21.44
2023-09-20T09:20:20.603Z,21.33
2023-09-20T09:22:51.553Z,21.53
2023-09-20T09:25:21.903Z,22.22
2023-09-20T09:27:49.662Z,22.26
2023-09-20T09:30:19.693Z,22.39
2023-09-20T09:32:49.179Z,22.72
2023-09-20T09:35:27.537Z,23.00
2023-09-20T09:38:03.345Z,22.92
2023-09-20T09:40:32.116Z,22.32
2023-09-20T09:43:13.074Z,21.74
2023-09-20T09:45:40.960Z,21.51
2023-09-20T09:48:09.092Z,21.38
2023-09-20T09:50:41.777Z,21.20
2023-09-20T09:53:11.684Z,21.15
2023-09-20T09:55:40.437Z,21.30
2023-09-20T09:58:10.149Z,21.34
2023-09-20T10:00:41.889Z,21.54
2023-09-20T10:03:17.490Z,21.70
2023-09-20T10:05:48.087Z,21.79
2023-09-20T10:08:23.094Z,22.03
2023-09-20T10:10:51.943Z,22.03
2023-09-20T10:13:19.818Z,22.09
2023-09-20T10:15:47.847Z,22.23
2023-09-20T10:18:15.728Z,22.18
2023-09-20T10:20:59.072Z,22.25
2023-09-20T10:23:28.494Z,22.43
2023-09-20T10:26:01.910Z,22.62
2023-09-20T10:28:38.918Z,22.74
2023-09-20T10:31:08.070Z,22.80
2023-09-20T10:33:46.220Z,22.84
2023-09-20T10:36:16.237Z,22.95
2023-09-20T10:38:47.357Z,22.85
2023-09-20T10:41:16.565Z,22.90
2023-09-20T10:43:49.910Z,23.07
2023-09-20T10:46:20.334Z,23.27
2023-09-20T10:48:51.220Z,23.26
2023-09-20T10:51:44.808Z,23.48
2023-09-20T10:54:30.810Z,23.58
2023-09-20T10:59:33.340Z,23.64
2023-09-20T11:02:10.957Z,23.84
2023-09-20T11:04:40.374Z,24.27
2023-09-20T11:07:10.512Z,24.47
2023-09-20T11:09:40.474Z,24.59
2023-09-20T11:12:09.717Z,24.34
2023-09-20T11:14:41.094Z,23.95
2023-09-20T11:17:10.461Z,23.97
2023-09-20T11:19:41.190Z,24.45
2023-09-20T11:22:09.115Z,24.75
2023-09-20T11:24:42.872Z,24.97
2023-09-20T11:27:12.959Z,25.50
2023-09-20T11:29:45.330Z,26.26
2023-09-20T11:32:13.444Z,26.53
2023-09-20T11:34:46.480Z,26.46
2023-09-20T11:37:19.110Z,26.05
2023-09-20T11:39:50.004Z,26.42
2023-09-20T11:42:28.612Z,26.52
2023-09-20T11:45:07.246Z,26.87
2023-09-20T11:47:45.717Z,27.57
2023-09-20T11:50:15.297Z,26.88
2023-09-20T11:52:46.513Z,25.80
2023-09-20T11:55:16.746Z,26.05
2023-09-20T11:57:46.434Z,25.97
2023-09-20T12:00:18.098Z,25.82
2023-09-20T12:02:46.913Z,25.52
2023-09-20T12:05:15.439Z,25.25
2023-09-20T12:07:54.324Z,25.32
2023-09-20T12:10:24.020Z,25.63
2023-09-20T12:12:53.888Z,26.58
2023-09-20T12:15:23.837Z,27.47
2023-09-20T12:17:53.050Z,27.90
2023-09-20T12:20:21.302Z,28.25
2023-09-20T12:22:49.396Z,28.33
2023-09-20T12:25:18.017Z,28.29
2023-09-20T12:27:48.017Z,28.26
2023-09-20T12:30:16.061Z,27.45
2023-09-20T12:32:44.393Z,27.44
2023-09-20T12:35:14.454Z,27.56
2023-09-20T12:37:42.240Z,28.13
2023-09-20T12:40:11.774Z,27.85
2023-09-20T12:42:40.153Z,27.31
2023-09-20T12:45:10.435Z,26.90
2023-09-20T12:47:41.462Z,26.53
2023-09-20T12:50:13.560Z,26.44
2023-09-20T12:52:43.631Z,27.16
2023-09-20T12:55:12.002Z,27.57
2023-09-20T12:57:40.129Z,27.30
2023-09-20T13:00:15.433Z,26.45
2023-09-20T13:02:46.686Z,26.65
2023-09-20T13:05:14.983Z,26.84
2023-09-20T13:07:42.722Z,26.90
2023-09-20T13:10:15.011Z,27.45
2023-09-20T13:12:43.072Z,27.64
2023-09-20T13:15:13.968Z,26.77
2023-09-20T13:17:42.273Z,27.04
2023-09-20T13:20:11.253Z,27.42
2023-09-20T13:22:38.972Z,28.02
2023-09-20T13:25:09.375Z,27.62
2023-09-20T13:27:37.193Z,27.66
2023-09-20T13:30:11.068Z,27.87
2023-09-20T13:32:40.426Z,28.03
2023-09-20T13:35:12.285Z,27.94
2023-09-20T13:37:41.880Z,27.46
2023-09-20T13:40:14.039Z,27.38
2023-09-20T13:42:43.134Z,27.53
2023-09-20T13:45:12.628Z,27.41
2023-09-20T13:47:43.028Z,27.61
2023-09-20T13:50:12.059Z,27.40
2023-09-20T13:52:41.513Z,27.47
2023-09-20T13:55:12.380Z,27.55
2023-09-20T13:57:40.224Z,27.78
2023-09-20T14:00:12.574Z,27.58
2023-09-20T14:02:42.043Z,27.57
2023-09-20T14:05:15.598Z,27.42
2023-09-20T14:07:45.562Z,27.41
2023-09-20T14:10:14.158Z,27.41
2023-09-20T14:12:43.467Z,27.31
2023-09-20T14:15:13.614Z,27.41
2023-09-20T14:17:46.308Z,27.37
2023-09-20T14:20:17.444Z,27.09
2023-09-20T14:22:45.373Z,26.98
2023-09-20T14:25:13.182Z,26.88
2023-09-20T14:27:41.910Z,26.99
2023-09-20T14:30:11.594Z,26.92
2023-09-20T14:32:40.505Z,27.00
2023-09-20T14:35:14.036Z,27.13
2023-09-20T14:37:42.201Z,27.03
2023-09-20T14:40:14.001Z,26.91
2023-09-20T14:42:44.953Z,26.78
2023-09-20T14:45:17.794Z,26.83
2023-09-20T14:47:45.959Z,26.70
2023-09-20T14:50:15.800Z,26.53
2023-09-20T14:52:44.620Z,26.73
2023-09-20T14:55:13.792Z,26.70
2023-09-20T14:57:43.152Z,26.66
2023-09-20T15:00:17.776Z,26.46
2023-09-20T15:02:45.768Z,26.47
2023-09-20T15:05:16.058Z,26.39
2023-09-20T15:07:44.388Z,26.44
2023-09-20T15:10:15.206Z,26.34
2023-09-20T15:12:47.035Z,26.36
2023-09-20T15:15:15.751Z,26.21
2023-09-20T15:17:44.303Z,26.01
2023-09-20T15:20:14.778Z,25.87
2023-09-20T15:22:45.564Z,25.79
2023-09-20T15:25:15.945Z,25.77
2023-09-20T15:27:45.689Z,25.83
2023-09-20T15:30:15.122Z,25.63
2023-09-20T15:32:43.672Z,25.56
2023-09-20T15:35:11.992Z,25.61
2023-09-20T15:37:45.786Z,25.52
2023-09-20T15:40:17.319Z,25.63
2023-09-20T15:42:47.763Z,25.35
2023-09-20T15:45:19.245Z,25.27
2023-09-20T15:47:47.709Z,25.13
2023-09-20T15:50:15.917Z,25.13
2023-09-20T15:52:43.762Z,25.04
2023-09-20T15:55:16.412Z,25.02
2023-09-20T15:57:47.169Z,24.90
2023-09-20T16:00:17.338Z,24.85
2023-09-20T16:02:47.046Z,24.79
2023-09-20T16:05:16.432Z,24.74
2023-09-20T16:07:44.757Z,24.69
2023-09-20T16:10:17.550Z,24.68
2023-09-20T16:12:47.727Z,24.62
2023-09-20T16:15:17.286Z,24.56
2023-09-20T16:17:45.765Z,24.50
2023-09-20T16:20:15.789Z,24.47
2023-09-20T16:22:44.513Z,24.42
2023-09-20T16:25:13.240Z,24.46
2023-09-20T16:27:41.035Z,24.34
2023-09-20T16:30:12.648Z,24.42
2023-09-20T16:32:44.118Z,24.31
2023-09-20T16:35:13.097Z,24.21
2023-09-20T16:37:40.953Z,24.14
2023-09-20T16:40:09.949Z,24.07
2023-09-20T16:42:37.833Z,24.08
2023-09-20T16:45:06.479Z,23.95
2023-09-20T16:47:35.765Z,23.85
2023-09-20T16:50:03.534Z,23.79
2023-09-20T16:52:31.238Z,23.72
2023-09-20T16:54:59.113Z,23.64
2023-09-20T16:57:27.314Z,23.57
2023-09-20T16:59:55.038Z,23.49
2023-09-20T17:02:24.912Z,23.44
2023-09-20T17:04:55.441Z,23.39
2023-09-20T17:07:24.841Z,23.32
2023-09-20T17:09:52.741Z,23.26
2023-09-20T17:12:20.830Z,23.18
2023-09-20T17:14:48.699Z,23.11
2023-09-20T17:17:16.648Z,23.05
2023-09-20T17:19:44.322Z,23.01
2023-09-20T17:22:14.484Z,22.98
2023-09-20T17:24:42.161Z,22.93
2023-09-20T17:27:27.013Z,22.88
2023-09-20T17:29:59.027Z,22.74
2023-09-20T17:32:26.984Z,22.64
2023-09-20T17:34:55.630Z,22.54
2023-09-20T17:37:25.146Z,22.44
2023-09-20T17:39:53.277Z,22.32
2023-09-20T17:42:21.176Z,22.32
2023-09-20T17:44:49.320Z,22.31
2023-09-20T17:47:17.202Z,22.26
2023-09-20T17:49:44.852Z,22.17
2023-09-20T17:52:12.626Z,22.05
2023-09-20T17:54:41.794Z,21.82
2023-09-20T17:57:10.302Z,21.67
2023-09-20T17:59:39.682Z,21.45
2023-09-20T18:02:10.540Z,21.39
2023-09-20T18:04:40.356Z,21.37
2023-09-20T18:07:08.119Z,21.31
2023-09-20T18:09:36.134Z,21.26
2023-09-20T18:12:05.650Z,21.25
2023-09-20T18:14:33.547Z,21.23
2023-09-20T18:17:01.836Z,21.24
2023-09-20T18:19:30.090Z,21.17
2023-09-20T18:21:58.432Z,21.14
2023-09-20T18:24:27.206Z,21.08
2023-09-20T18:26:55.911Z,21.01
2023-09-20T18:29:25.199Z,20.98
2023-09-20T18:31:53.253Z,20.95
2023-09-20T18:34:22.022Z,20.80
2023-09-20T18:36:52.429Z,20.63
2023-09-20T18:39:20.113Z,20.48
2023-09-20T18:41:47.968Z,20.37
2023-09-20T18:44:15.812Z,20.28
2023-09-20T18:46:47.149Z,20.21
2023-09-20T18:49:14.963Z,20.17
2023-09-20T18:51:43.542Z,20.16
2023-09-20T18:54:14.259Z,20.10
2023-09-20T18:56:43.024Z,20.06
2023-09-20T18:59:13.167Z,19.97
2023-09-20T19:01:42.258Z,19.99
2023-09-20T19:04:11.509Z,20.00
2023-09-20T19:06:41.474Z,19.94
2023-09-20T19:09:09.628Z,19.90
2023-09-20T19:11:37.626Z,19.86
2023-09-20T19:14:08.105Z,19.84
2023-09-20T19:16:36.137Z,19.91
2023-09-20T19:19:04.037Z,19.89
2023-09-20T19:21:34.519Z,19.88
2023-09-20T19:24:06.791Z,19.81
2023-09-20T19:26:35.465Z,19.78
2023-09-20T19:29:03.375Z,19.72
2023-09-20T19:31:31.440Z,19.64
2023-09-20T19:33:59.247Z,19.65
2023-09-20T19:36:29.923Z,19.65
2023-09-20T19:38:59.387Z,19.63
2023-09-20T19:41:30.473Z,19.37
2023-09-20T19:44:01.676Z,19.26
2023-09-20T19:46:29.941Z,19.36
2023-09-20T19:48:57.783Z,19.36
2023-09-20T19:51:25.699Z,19.43
2023-09-20T19:53:55.369Z,19.42
2023-09-20T19:56:25.324Z,19.44
2023-09-20T19:58:55.906Z,19.44
2023-09-20T20:01:25.258Z,19.45
2023-09-20T20:03:53.216Z,19.45
2023-09-20T20:06:21.364Z,19.40
2023-09-20T20:08:49.249Z,19.42
2023-09-20T20:11:20.762Z,19.42
2023-09-20T20:13:49.992Z,19.42
2023-09-20T20:16:19.063Z,19.37
2023-09-20T20:18:47.691Z,19.38
2023-09-20T20:21:16.505Z,19.39
2023-09-20T20:23:45.282Z,19.34
2023-09-20T20:26:13.829Z,19.24
2023-09-20T20:28:42.562Z,19.14
2023-09-20T20:31:12.075Z,19.14
2023-09-20T20:33:40.827Z,19.13
2023-09-20T20:36:09.889Z,19.19
2023-09-20T20:38:39.377Z,19.25
2023-09-20T20:41:08.441Z,19.21
2023-09-20T20:43:37.961Z,19.22
2023-09-20T20:46:17.005Z,19.16
2023-09-20T20:48:46.192Z,19.15
2023-09-20T20:51:15.798Z,19.17
2023-09-20T20:53:48.016Z,19.16
2023-09-20T20:56:18.074Z,19.07
2023-09-20T20:58:47.613Z,19.03
2023-09-20T21:01:17.105Z,18.98
2023-09-20T21:03:45.934Z,18.97
2023-09-20T21:06:15.403Z,18.85
2023-09-20T21:08:44.421Z,18.91
2023-09-20T21:11:11.772Z,19.02
2023-09-20T21:13:39.837Z,18.83
2023-09-20T21:16:08.659Z,18.74
2023-09-20T21:18:40.279Z,18.58
2023-09-20T21:21:08.845Z,18.42
2023-09-20T21:23:37.070Z,18.38
2023-09-20T21:26:06.509Z,18.08
2023-09-20T21:28:34.244Z,18.06
2023-09-20T21:31:02.724Z,18.02
2023-09-20T21:33:31.375Z,17.98
2023-09-20T21:36:00.681Z,18.04
2023-09-20T21:38:29.018Z,18.05
2023-09-20T21:40:56.805Z,18.02
2023-09-20T21:43:24.881Z,18.06
2023-09-20T21:45:53.146Z,18.17
2023-09-20T21:48:22.459Z,18.21
2023-09-20T21:50:50.657Z,18.25
2023-09-20T21:53:20.024Z,18.13
2023-09-20T21:55:48.033Z,18.15
2023-09-20T21:58:16.803Z,18.14
2023-09-20T22:00:45.768Z,18.04
2023-09-20T22:03:14.750Z,17.97
2023-09-20T22:05:42.739Z,17.87
2023-09-20T22:08:11.821Z,17.82
2023-09-20T22:10:43.369Z,17.80
2023-09-20T22:13:11.532Z,17.75
2023-09-20T22:15:42.004Z,17.64
2023-09-20T22:18:18.796Z,17.50
2023-09-20T22:20:47.506Z,17.39
2023-09-20T22:23:16.048Z,17.38
2023-09-20T22:25:45.517Z,17.46
2023-09-20T22:28:15.141Z,17.57
2023-09-20T22:30:43.159Z,17.49
2023-09-20T22:33:10.965Z,17.47
2023-09-20T22:35:38.892Z,17.48
2023-09-20T22:38:06.803Z,17.49
2023-09-20T22:40:34.493Z,17.55
2023-09-20T22:43:05.494Z,17.53
2023-09-20T22:45:35.542Z,17.46
2023-09-20T22:48:07.297Z,17.39
2023-09-20T22:50:40.385Z,17.32
2023-09-20T22:53:10.751Z,17.33
2023-09-20T22:55:41.635Z,17.19
2023-09-20T22:58:14.334Z,17.13
2023-09-20T23:00:45.086Z,17.13
2023-09-20T23:03:14.747Z,16.99
2023-09-20T23:05:44.254Z,17.02
2023-09-20T23:08:15.348Z,16.82
2023-09-20T23:10:45.993Z,16.66
2023-09-20T23:13:20.436Z,16.55
2023-09-20T23:15:53.276Z,16.45
2023-09-20T23:18:23.013Z,16.49
2023-09-20T23:20:51.707Z,16.35
2023-09-20T23:23:20.820Z,16.49
2023-09-20T23:25:51.139Z,16.42
2023-09-20T23:28:20.775Z,16.58
2023-09-20T23:30:54.071Z,16.49
2023-09-20T23:33:28.514Z,16.63
2023-09-20T23:35:59.104Z,16.63
2023-09-20T23:38:30.494Z,16.60
2023-09-20T23:41:06.506Z,16.79
2023-09-20T23:43:35.904Z,16.75
2023-09-20T23:46:05.888Z,16.64
2023-09-20T23:48:34.062Z,16.61
2023-09-20T23:51:03.231Z,16.65
2023-09-20T23:53:31.010Z,16.64
2023-09-20T23:55:59.432Z,16.54
2023-09-20T23:58:28.393Z,16.62
